KUNV/SCE METAR and TAF weather

Enter ICAO airport designator
Station Type Date Time Source
KUNV METAR 2018/12/10 12:53 UTC NOAA

KUNV 101253Z 00000KT 10SM OVC020 M05/M09 A3015


Station Type Date Time Source
KUNV Decoded METAR 2018/12/10 12:53 UTC NOAA

State College, University Park Airport, PA, United States (KUNV) 40-51N 077-51W
Dec 10, 2018 - 07:53 AM EST / 2018.12.10 1253 UTC
Wind: Calm:0
Visibility: 10 mile(s):0
Sky conditions: overcast
Temperature: 23 F (-5 C)
Dew Point: 15 F (-9 C)
Relative Humidity: 73%
Pressure (altimeter): 30.15 in. Hg (1020 hPa)
ob: KUNV 101253Z 00000KT 10SM OVC020 M05/M09 A3015
cycle: 13

Station Type Date Time Source
KUNV TAF 2018/12/10 12:48 UTC NOAA

TAF KUNV 101145Z 1012/1112 VRB04KT P6SM OVC015
FM101600 35004KT P6SM SCT025


Example: see airport list